Terminal Aerodrome Forecast
Issued by NWS

Home | Current Version | Previous Version | Text Only | Print | Product List | Glossary On
Versions: 1 2 3 4 5 6 7 8 9 10 11 12 13 14 15 16
000
FTUS43 KIND 211120
TAFBMG
TAF
KBMG 211120Z 2112/2212 VRB03KT P6SM SCT050 BKN120
     FM211600 16005KT P6SM VCSH SCT040 BKN100
     FM211800 17005KT P6SM VCTS BKN040CB
     FM212300 19005KT P6SM SCT040 BKN090 PROB30 2123/2203 4SM -TSRA
      BKN040CB
     FM220300 20005KT P6SM BKN060
      AMD LTD TO CLD VIS AND WIND TIL 211300=

USA.gov is the U.S. government's official web portal to all federal, state and local government web resources and services.